To NAV CANADA Home Page Login to a new session Search on AWWS site Disclaimer Vers la page française équivalente Tips FAQ What's new on the site To the Forecasts and Observations / NOTAM section To "File a Flight Plan" website Publications and other links Update of the User's profile FIC Telephone Numbers My Weather Data Folder Route Weather Data Regional Weather Data Local Weather Data To the Forecasts and Observations / NOTAM section
Request Generated 09/19/2020 at 01:59:33 UTC . Weather information available at that time is displayed.

METAR/TAF

THOMPSON/MB    

METAR CYTH 190100Z 20005KT 15SM SCT100 BKN210 11/01 A3001 RMK AC4CI1 SLP176=
METAR CYTH 190000Z 22008KT 15SM SCT110 BKN170 BKN220 14/01 A3001 RMK AC3AC2CI1 SLP177 DENSITY ALT 800FT=
METAR CYTH 182300Z 22008KT 15SM FEW090 SCT110 BKN170 BKN220 14/01 A3002 RMK AC1AC2AC2CI1 SLP180=

TAF CYTH 190038Z 1901/1913 22008KT P6SM SCT100 BKN220
BECMG 1901/1903 20005KT
RMK NXT FCST BY 190700Z=
Your time UTC time
Weather data provided by Environment Canada and NAV CANADA